Time;durP1;ratioP1;P1;durP2;ratioP2;P2;SDS_P1;SDS_P2;PMS_P1;PMS_P2;Temp;Humidity;BMP_temperature;BMP_pressure;BME280_temperature;BME280_humidity;BME280_pressure;Samples;Min_cycle;Max_cycle;Signal;HPM_P1;HPM_P2
2023/08/27 00:19:14;;;;;;;32.72;20.63;;;;;;;;;;5776947;22;20022;-86
2023/08/27 00:21:41;;;;;;;39.03;22.60;;;;;;;;;;5356007;23;20065;-85
2023/08/27 00:29:59;;;;;;;30.77;21.25;;;;;;;;;;6040339;23;20024;-81
2023/08/27 00:38:21;;;;;;;32.50;22.20;;;;;;;;;;5839953;22;20084;31
2023/08/27 00:43:36;;;;;;;31.48;21.38;;;;;;;;;;5175025;23;20062;-84
2023/08/27 00:46:05;;;;;;;28.23;22.17;;;;;;;;;;5754593;23;20024;-79
2023/08/27 00:48:31;;;;;;;28.52;22.65;;;;;;;;;;4986757;28;20130;-84
2023/08/27 00:50:57;;;;;;;25.65;19.38;;;;;;;;;;5098780;23;20089;-83
2023/08/27 00:53:24;;;;;;;23.38;18.38;;;;;;;;;;5001984;28;20010;-81
2023/08/27 00:55:51;;;;;;;20.08;16.70;;;;;;;;;;5042279;22;20560;-80
2023/08/27 00:58:17;;;;;;;20.67;15.65;;;;;;;;;;5000912;28;20080;-82
2023/08/27 01:00:43;;;;;;;16.83;15.15;;;;;;;;;;4984922;28;20031;-82
2023/08/27 01:03:09;;;;;;;15.45;13.80;;;;;;;;;;5000652;28;20038;-83
2023/08/27 01:05:36;;;;;;;16.38;14.85;;;;;;;;;;4966815;28;20033;-83
2023/08/27 01:08:07;;;;;;;14.60;13.25;;;;;;;;;;4984208;28;20090;-80
2023/08/27 01:10:33;;;;;;;;;;;;;;;;;;4999792;28;20042;-81
2023/08/27 01:13:03;;;;;;;13.23;11.88;;;;;;;;;;5015862;28;19924;-83
2023/08/27 01:15:29;;;;;;;13.32;11.65;;;;;;;;;;4984062;28;20046;-83
2023/08/27 01:17:55;;;;;;;14.25;12.75;;;;;;;;;;5017920;28;20026;-81
2023/08/27 01:20:22;;;;;;;22.40;15.02;;;;;;;;;;5016624;28;20053;-82
2023/08/27 01:22:48;;;;;;;19.05;14.43;;;;;;;;;;4999538;28;20061;-79
2023/08/27 01:25:16;;;;;;;15.57;13.50;;;;;;;;;;4998281;28;20034;-83
2023/08/27 01:27:45;;;;;;;20.27;14.77;;;;;;;;;;5015784;28;20038;-83
2023/08/27 01:30:24;;;;;;;25.67;15.57;;;;;;;;;;4998299;28;20057;-83
2023/08/27 01:32:57;;;;;;;18.45;15.38;;;;;;;;;;5015416;28;20362;-82
2023/08/27 01:35:23;;;;;;;21.35;14.90;;;;;;;;;;4982790;28;20077;-81
2023/08/27 01:37:49;;;;;;;23.02;16.42;;;;;;;;;;4997844;28;20061;-83
2023/08/27 01:40:16;;;;;;;33.85;18.52;;;;;;;;;;4998162;28;20066;-83
2023/08/27 01:42:43;;;;;;;22.75;15.35;;;;;;;;;;4999891;28;20094;-83
2023/08/27 01:45:09;;;;;;;25.70;16.23;;;;;;;;;;5016034;28;20058;-82
2023/08/27 01:47:35;;;;;;;23.30;16.40;;;;;;;;;;5016596;28;20069;-82
2023/08/27 01:50:01;;;;;;;17.38;15.48;;;;;;;;;;4999646;28;20102;-81
2023/08/27 01:52:31;;;;;;;17.48;15.45;;;;;;;;;;5015769;28;20027;-83
2023/08/27 01:54:58;;;;;;;19.50;15.30;;;;;;;;;;5015505;28;20054;-81
2023/08/27 01:57:24;;;;;;;16.50;14.70;;;;;;;;;;5016558;28;20017;-81
2023/08/27 01:59:50;;;;;;;16.38;14.57;;;;;;;;;;4967301;28;20109;-83
2023/08/27 02:02:17;;;;;;;17.10;15.30;;;;;;;;;;4983614;28;20061;-81
2023/08/27 02:04:43;;;;;;;27.90;16.15;;;;;;;;;;4999010;28;20106;-81
2023/08/27 02:07:10;;;;;;;19.30;15.88;;;;;;;;;;4983900;28;20047;-83
2023/08/27 02:09:36;;;;;;;23.83;15.40;;;;;;;;;;5000372;28;20024;-83
2023/08/27 02:12:03;;;;;;;19.65;16.23;;;;;;;;;;4984427;28;20034;-84
2023/08/27 02:14:29;;;;;;;21.33;16.83;;;;;;;;;;5017402;28;20066;-82
2023/08/27 02:16:56;;;;;;;23.45;16.98;;;;;;;;;;5000925;28;20026;-84
2023/08/27 02:19:22;;;;;;;22.60;16.52;;;;;;;;;;5004399;28;20094;-83
2023/08/27 02:21:48;;;;;;;28.17;18.42;;;;;;;;;;5004680;28;20014;-81
2023/08/27 02:24:14;;;;;;;20.55;16.83;;;;;;;;;;5004386;28;20089;-82
2023/08/27 02:26:40;;;;;;;20.70;15.80;;;;;;;;;;5112299;23;20054;-82
2023/08/27 02:29:06;;;;;;;23.33;16.33;;;;;;;;;;5004239;28;20038;-81
2023/08/27 02:31:33;;;;;;;18.45;16.27;;;;;;;;;;5004043;28;20006;-82
2023/08/27 02:33:59;;;;;;;21.00;15.07;;;;;;;;;;5020463;28;20027;-83
2023/08/27 02:48:27;;;;;;;21.48;15.85;;;;;;;;;;5917931;22;20043;-83
2023/08/27 02:50:53;;;;;;;16.42;14.68;;;;;;;;;;5698364;23;20046;-87
2023/08/27 02:53:19;;;;;;;17.20;14.68;;;;;;;;;;4982686;28;20058;-87
2023/08/27 02:55:45;;;;;;;16.30;14.63;;;;;;;;;;4998395;28;20039;-85
2023/08/27 02:58:12;;;;;;;20.45;16.20;;;;;;;;;;4991651;28;20050;-88
2023/08/27 03:00:41;;;;;;;18.08;15.07;;;;;;;;;;5066344;23;20074;-86
2023/08/27 03:03:08;;;;;;;17.05;15.32;;;;;;;;;;5456109;23;20039;-82
2023/08/27 03:05:34;;;;;;;20.08;16.38;;;;;;;;;;5767535;22;20230;-75
2023/08/27 03:08:00;;;;;;;23.95;16.60;;;;;;;;;;5183829;23;20051;-86
2023/08/27 03:10:27;;;;;;;20.67;16.13;;;;;;;;;;5269209;23;20047;-85
2023/08/27 03:12:53;;;;;;;26.15;17.50;;;;;;;;;;5823822;23;20057;-86
2023/08/27 03:15:28;;;;;;;18.52;15.85;;;;;;;;;;5631207;23;20024;31
2023/08/27 03:17:54;;;;;;;23.92;17.23;;;;;;;;;;5263717;23;20027;-85
2023/08/27 03:23:09;;;;;;;23.10;16.55;;;;;;;;;;5206105;22;20020;-78
2023/08/27 03:25:36;;;;;;;21.77;17.13;;;;;;;;;;5820711;22;20026;-79
2023/08/27 03:28:02;;;;;;;21.92;16.95;;;;;;;;;;5654730;23;20054;-87
2023/08/27 03:33:17;;;;;;;20.48;15.57;;;;;;;;;;5796763;22;19915;-76
2023/08/27 03:41:26;;;;;;;16.80;15.00;;;;;;;;;;5981376;23;21770;-77
2023/08/27 03:43:52;;;;;;;17.95;15.98;;;;;;;;;;5371552;23;20054;-84
2023/08/27 03:46:28;;;;;;;19.17;16.48;;;;;;;;;;5648486;23;20029;-85
2023/08/27 03:51:50;;;;;;;19.85;15.95;;;;;;;;;;5784410;23;20030;-86
2023/08/27 03:54:16;;;;;;;17.98;15.88;;;;;;;;;;5002041;28;20038;-84
2023/08/27 03:56:42;;;;;;;16.77;14.98;;;;;;;;;;5113488;23;20065;-85
2023/08/27 03:59:08;;;;;;;17.70;15.77;;;;;;;;;;4998986;28;20030;-85
2023/08/27 04:01:34;;;;;;;19.38;15.27;;;;;;;;;;4997659;28;20029;-83
2023/08/27 04:04:00;;;;;;;18.85;15.98;;;;;;;;;;4998534;28;20057;-85
2023/08/27 04:06:26;;;;;;;25.15;17.17;;;;;;;;;;5291035;23;20051;-82
2023/08/27 04:08:53;;;;;;;18.77;16.23;;;;;;;;;;5514205;23;20206;31
2023/08/27 04:11:19;;;;;;;20.48;16.55;;;;;;;;;;5588176;23;21204;-85
2023/08/27 04:13:45;;;;;;;18.15;15.68;;;;;;;;;;5263484;23;21039;-83
2023/08/27 04:19:07;;;;;;;23.75;16.27;;;;;;;;;;5459829;23;21894;-84
2023/08/27 04:24:41;;;;;;;23.92;16.08;;;;;;;;;;5605292;22;20041;-85
2023/08/27 04:27:08;;;;;;;22.13;17.98;;;;;;;;;;5340025;23;20059;-81
2023/08/27 04:29:34;;;;;;;20.55;16.90;;;;;;;;;;5222455;23;20039;-85
2023/08/27 04:32:00;;;;;;;20.42;16.45;;;;;;;;;;5001863;23;20051;-85
2023/08/27 04:34:27;;;;;;;18.13;16.27;;;;;;;;;;5215561;23;20067;-84
2023/08/27 04:36:55;;;;;;;20.80;16.45;;;;;;;;;;5406820;23;20050;-85
2023/08/27 04:39:22;;;;;;;19.27;16.17;;;;;;;;;;5310836;23;20043;-85
2023/08/27 04:41:50;;;;;;;24.73;17.05;;;;;;;;;;5415582;23;20048;-75
2023/08/27 04:44:16;;;;;;;20.08;16.73;;;;;;;;;;5371106;23;20068;-83
2023/08/27 04:58:40;;;;;;;26.17;18.40;;;;;;;;;;5653085;23;20021;-79
2023/08/27 05:01:06;;;;;;;26.20;18.42;;;;;;;;;;5462163;23;20090;-84
2023/08/27 05:06:29;;;;;;;23.08;18.58;;;;;;;;;;5565944;22;20070;-83
2023/08/27 05:09:18;;;;;;;29.08;20.45;;;;;;;;;;5406963;23;20021;-82
2023/08/27 05:11:44;;;;;;;25.50;19.52;;;;;;;;;;5185542;23;20103;-83
2023/08/27 05:14:36;;;;;;;28.40;20.13;;;;;;;;;;5755255;23;21165;31
2023/08/27 05:17:03;;;;;;;28.65;19.95;;;;;;;;;;5274552;23;20051;-84
2023/08/27 05:19:29;;;;;;;27.90;20.67;;;;;;;;;;5397706;23;20042;-83
2023/08/27 05:24:54;;;;;;;36.80;21.60;;;;;;;;;;5281296;22;20030;-81
2023/08/27 05:27:21;;;;;;;29.65;20.98;;;;;;;;;;5399062;23;20046;-85
2023/08/27 05:32:31;;;;;;;34.42;23.00;;;;;;;;;;5464976;23;20051;-84
2023/08/27 05:34:57;;;;;;;34.25;23.98;;;;;;;;;;5439697;23;20060;-83
2023/08/27 05:43:01;;;;;;;43.45;24.67;;;;;;;;;;5406785;23;20030;-85
2023/08/27 05:45:27;;;;;;;33.65;23.48;;;;;;;;;;5236362;23;20102;-83
2023/08/27 05:53:42;;;;;;;26.77;18.45;;;;;;;;;;5598697;23;20029;-81
2023/08/27 05:56:09;;;;;;;34.53;21.15;;;;;;;;;;5380673;23;20057;-85
2023/08/27 05:58:36;;;;;;;31.48;20.75;;;;;;;;;;5147893;23;20035;-86
2023/08/27 06:01:03;;;;;;;26.75;20.05;;;;;;;;;;5534717;23;20039;-84
2023/08/27 06:03:30;;;;;;;34.00;20.88;;;;;;;;;;4965797;28;20078;-87
2023/08/27 06:05:56;;;;;;;27.65;20.38;;;;;;;;;;4965246;28;20041;-84
2023/08/27 06:08:22;;;;;;;29.63;22.35;;;;;;;;;;4981691;28;20035;-84
2023/08/27 06:10:52;;;;;;;29.52;21.50;;;;;;;;;;5482557;23;20976;-79
2023/08/27 06:13:18;;;;;;;30.80;21.65;;;;;;;;;;5328268;23;20142;-81
2023/08/27 06:18:44;;;;;;;26.75;19.65;;;;;;;;;;5340981;23;20031;-85
2023/08/27 06:21:10;;;;;;;25.20;20.33;;;;;;;;;;5377294;23;20039;-84
2023/08/27 06:23:37;;;;;;;26.08;19.70;;;;;;;;;;5751391;22;20061;-74
2023/08/27 06:26:05;;;;;;;26.40;21.10;;;;;;;;;;5114612;23;20130;-84
2023/08/27 06:28:32;;;;;;;25.15;20.63;;;;;;;;;;4979921;28;20041;-85
2023/08/27 06:30:59;;;;;;;22.10;19.33;;;;;;;;;;4993970;28;20062;-85
2023/08/27 06:33:25;;;;;;;26.58;20.38;;;;;;;;;;4979785;28;20038;-84
2023/08/27 06:35:51;;;;;;;25.70;20.60;;;;;;;;;;4980107;28;20014;-84
2023/08/27 06:38:17;;;;;;;34.28;21.85;;;;;;;;;;4997345;28;20029;-86
2023/08/27 06:40:44;;;;;;;30.00;22.45;;;;;;;;;;5112679;23;20062;-84
2023/08/27 06:43:11;;;;;;;33.92;22.10;;;;;;;;;;5475502;23;20070;-85
2023/08/27 06:45:43;;;;;;;32.20;23.67;;;;;;;;;;5194148;23;20062;-85
2023/08/27 06:48:09;;;;;;;32.45;23.08;;;;;;;;;;5317344;23;20057;-85
2023/08/27 06:50:36;;;;;;;38.00;23.30;;;;;;;;;;5446082;22;20053;-85
2023/08/27 06:53:04;;;;;;;34.45;23.90;;;;;;;;;;4984163;28;20023;-84
2023/08/27 06:58:34;;;;;;;30.83;22.30;;;;;;;;;;5404825;22;20062;-86
2023/08/27 07:01:04;;;;;;;35.10;21.92;;;;;;;;;;5638458;22;20047;-79
2023/08/27 07:03:31;;;;;;;29.45;23.67;;;;;;;;;;5686132;23;21644;-74
2023/08/27 07:06:01;;;;;;;35.00;24.90;;;;;;;;;;5699045;23;20312;-79
2023/08/27 07:08:50;;;;;;;33.70;24.17;;;;;;;;;;5422700;22;20058;-85
2023/08/27 07:14:08;;;;;;;32.65;25.00;;;;;;;;;;5100529;23;20062;-83
2023/08/27 07:16:36;;;;;;;33.00;24.98;;;;;;;;;;5275938;23;20038;-86
2023/08/27 07:24:33;;;;;;;34.83;25.95;;;;;;;;;;5104232;23;20057;-87
2023/08/27 07:26:59;;;;;;;34.53;26.23;;;;;;;;;;5360597;23;20035;-85
2023/08/27 07:29:27;;;;;;;30.23;25.10;;;;;;;;;;5181280;23;20525;-84
2023/08/27 07:34:42;;;;;;;31.33;23.77;;;;;;;;;;5349459;23;20652;-84
2023/08/27 07:37:08;;;;;;;30.02;22.25;;;;;;;;;;5017848;28;20034;-82
2023/08/27 07:39:34;;;;;;;24.13;21.40;;;;;;;;;;5002527;28;20022;-83
2023/08/27 07:42:02;;;;;;;23.52;20.05;;;;;;;;;;5019495;28;20034;-83
2023/08/27 07:44:29;;;;;;;23.17;19.25;;;;;;;;;;5018664;28;20096;-85
2023/08/27 07:46:56;;;;;;;18.88;17.00;;;;;;;;;;5019821;28;20061;-84
2023/08/27 07:49:22;;;;;;;21.27;18.38;;;;;;;;;;4985989;28;20106;-84
2023/08/27 07:51:48;;;;;;;26.73;20.92;;;;;;;;;;5001183;28;20062;-83
2023/08/27 07:54:14;;;;;;;24.30;19.98;;;;;;;;;;5017284;28;20042;-83
2023/08/27 07:56:42;;;;;;;21.33;19.13;;;;;;;;;;5017077;28;20041;-84
2023/08/27 07:59:09;;;;;;;23.92;19.27;;;;;;;;;;4984935;28;20038;-83
2023/08/27 08:01:36;;;;;;;22.40;19.15;;;;;;;;;;5017879;28;20082;-85
2023/08/27 08:04:04;;;;;;;19.92;18.02;;;;;;;;;;5015374;28;20046;-83
2023/08/27 08:06:31;;;;;;;18.65;15.95;;;;;;;;;;4983289;28;20037;-84
2023/08/27 08:08:57;;;;;;;15.43;13.95;;;;;;;;;;5015177;28;20090;-84
2023/08/27 08:11:22;;;;;;;16.40;14.93;;;;;;;;;;5011186;28;20038;-84
2023/08/27 08:13:51;;;;;;;15.45;13.93;;;;;;;;;;5009153;28;20026;-83
2023/08/27 08:16:17;;;;;;;19.92;16.15;;;;;;;;;;4992380;28;20034;-82
2023/08/27 08:18:43;;;;;;;18.75;15.07;;;;;;;;;;5004049;28;20030;-83
2023/08/27 08:21:09;;;;;;;16.02;14.48;;;;;;;;;;4986474;28;20069;-84
2023/08/27 08:23:35;;;;;;;14.98;13.57;;;;;;;;;;4993481;28;20450;-84
2023/08/27 08:26:02;;;;;;;14.75;13.45;;;;;;;;;;5014407;28;20038;-84
2023/08/27 08:28:27;;;;;;;12.98;11.88;;;;;;;;;;4979709;28;20098;-83
2023/08/27 08:30:54;;;;;;;21.42;13.65;;;;;;;;;;4981093;28;20023;-83
2023/08/27 08:33:20;;;;;;;20.55;15.27;;;;;;;;;;5013090;28;20049;-83
2023/08/27 08:35:46;;;;;;;21.77;14.65;;;;;;;;;;4995384;28;20042;-83
2023/08/27 08:38:12;;;;;;;15.85;14.25;;;;;;;;;;4995148;28;20070;-83
2023/08/27 08:40:40;;;;;;;19.48;13.75;;;;;;;;;;4995649;28;20050;-85
2023/08/27 08:43:06;;;;;;;14.13;12.02;;;;;;;;;;4979518;28;20095;-83
2023/08/27 08:45:32;;;;;;;12.77;11.48;;;;;;;;;;5014418;28;20034;-83
2023/08/27 08:47:57;;;;;;;13.68;11.45;;;;;;;;;;4996677;28;20030;-84
2023/08/27 08:50:25;;;;;;;13.18;11.85;;;;;;;;;;4997856;28;20052;-84
2023/08/27 08:52:52;;;;;;;14.48;11.35;;;;;;;;;;5013614;28;20045;-83
2023/08/27 08:55:18;;;;;;;15.88;10.80;;;;;;;;;;4996707;28;20023;-84
2023/08/27 08:58:03;;;;;;;10.68;9.77;;;;;;;;;;5013744;28;20023;-82
2023/08/27 09:00:32;;;;;;;15.23;10.15;;;;;;;;;;4999262;28;20027;-84
2023/08/27 09:03:00;;;;;;;11.82;10.82;;;;;;;;;;5086605;23;20229;-84
2023/08/27 09:05:27;;;;;;;17.37;10.43;;;;;;;;;;4978397;28;20031;-83
2023/08/27 09:07:53;;;;;;;10.55;9.52;;;;;;;;;;4978429;28;20051;-83
2023/08/27 09:10:19;;;;;;;12.05;10.00;;;;;;;;;;4978131;28;20042;-85
2023/08/27 09:12:45;;;;;;;11.63;10.43;;;;;;;;;;4978586;28;20043;-84
2023/08/27 09:15:11;;;;;;;11.68;10.52;;;;;;;;;;4975916;28;20047;-83
2023/08/27 09:17:38;;;;;;;11.55;10.40;;;;;;;;;;4959742;29;20035;-84
2023/08/27 09:20:04;;;;;;;12.02;10.43;;;;;;;;;;4973056;29;20087;-81
2023/08/27 09:22:30;;;;;;;12.82;10.43;;;;;;;;;;4976747;29;20019;-81
2023/08/27 09:24:56;;;;;;;11.63;10.65;;;;;;;;;;4966029;29;20114;-82
2023/08/27 09:27:22;;;;;;;11.52;10.10;;;;;;;;;;4966130;28;20069;-85
2023/08/27 09:29:48;;;;;;;15.23;10.18;;;;;;;;;;4986137;28;20066;-85
2023/08/27 09:32:21;;;;;;;14.95;9.45;;;;;;;;;;4950012;29;20464;-82
2023/08/27 09:34:48;;;;;;;14.43;9.00;;;;;;;;;;4967839;28;20046;-85
2023/08/27 09:37:14;;;;;;;8.18;6.88;;;;;;;;;;4964974;29;20057;-83
2023/08/27 09:39:44;;;;;;;12.10;6.72;;;;;;;;;;4973201;28;20115;-84
2023/08/27 09:42:10;;;;;;;8.35;6.20;;;;;;;;;;4972615;28;20031;-83
2023/08/27 09:44:36;;;;;;;11.73;7.22;;;;;;;;;;4973010;29;20042;-86
2023/08/27 09:47:05;;;;;;;10.60;7.32;;;;;;;;;;4975311;28;20043;-85
2023/08/27 09:49:31;;;;;;;6.82;6.20;;;;;;;;;;4972448;28;20043;-85
2023/08/27 09:51:58;;;;;;;8.10;6.85;;;;;;;;;;4989823;28;20498;-84
2023/08/27 09:54:28;;;;;;;7.55;6.72;;;;;;;;;;4956834;29;20067;-84
2023/08/27 09:56:59;;;;;;;7.88;6.65;;;;;;;;;;4941749;29;20039;-83
2023/08/27 09:59:26;;;;;;;8.50;6.55;;;;;;;;;;4973186;28;20069;-83
2023/08/27 10:01:52;;;;;;;11.18;7.40;;;;;;;;;;4938585;29;20090;-84
2023/08/27 10:04:22;;;;;;;10.20;7.72;;;;;;;;;;4971139;29;20039;-84
2023/08/27 10:06:48;;;;;;;7.53;6.72;;;;;;;;;;4971804;29;20032;-84
2023/08/27 10:09:14;;;;;;;7.72;6.30;;;;;;;;;;4954781;29;20023;-85
2023/08/27 10:11:44;;;;;;;7.05;5.68;;;;;;;;;;4971790;29;20037;-84
2023/08/27 10:14:11;;;;;;;7.20;5.95;;;;;;;;;;4955000;29;20051;-83
2023/08/27 10:16:37;;;;;;;6.15;5.57;;;;;;;;;;4986917;28;20035;-83
2023/08/27 10:19:04;;;;;;;6.60;5.90;;;;;;;;;;4919468;29;20039;-83
2023/08/27 10:21:30;;;;;;;6.25;5.60;;;;;;;;;;4955849;29;20111;-84
2023/08/27 10:23:56;;;;;;;6.30;5.72;;;;;;;;;;4936187;29;20040;-83
2023/08/27 10:26:26;;;;;;;7.50;6.70;;;;;;;;;;4964062;29;20067;-86
2023/08/27 10:28:53;;;;;;;10.13;6.30;;;;;;;;;;4946251;29;20102;-83
2023/08/27 10:31:19;;;;;;;10.63;6.38;;;;;;;;;;4946665;29;20036;-83
2023/08/27 10:33:45;;;;;;;8.50;5.68;;;;;;;;;;4949749;29;20031;-83
2023/08/27 10:36:19;;;;;;;6.53;5.95;;;;;;;;;;4951674;29;20036;-83
2023/08/27 10:38:45;;;;;;;6.93;6.25;;;;;;;;;;4959360;28;20063;-76
2023/08/27 10:41:14;;;;;;;8.98;7.05;;;;;;;;;;4950950;29;20059;-76
2023/08/27 10:43:40;;;;;;;6.53;6.03;;;;;;;;;;4950278;29;20051;-77
2023/08/27 10:46:24;;;;;;;7.82;5.75;;;;;;;;;;4932986;29;20428;-77
2023/08/27 10:48:52;;;;;;;5.93;5.43;;;;;;;;;;4935128;29;20038;-78
2023/08/27 10:51:21;;;;;;;6.25;5.75;;;;;;;;;;4949784;29;20500;-78
2023/08/27 10:53:48;;;;;;;7.63;6.18;;;;;;;;;;4949985;29;20043;-77
2023/08/27 10:56:27;;;;;;;6.13;5.50;;;;;;;;;;4917956;29;20035;-78
2023/08/27 10:59:00;;;;;;;6.97;6.30;;;;;;;;;;4933978;29;20058;-78
2023/08/27 11:01:26;;;;;;;7.78;5.60;;;;;;;;;;4939620;29;20059;-77
2023/08/27 11:03:56;;;;;;;6.20;5.13;;;;;;;;;;4937864;29;20035;-78
2023/08/27 11:06:52;;;;;;;5.72;5.10;;;;;;;;;;4937851;29;20397;-78
2023/08/27 11:09:23;;;;;;;8.23;4.18;;;;;;;;;;4946753;29;20043;-77
2023/08/27 11:11:51;;;;;;;8.35;4.38;;;;;;;;;;4955749;29;20039;-77
2023/08/27 11:14:18;;;;;;;7.47;4.70;;;;;;;;;;4953625;29;20382;-78
2023/08/27 11:16:44;;;;;;;4.28;3.90;;;;;;;;;;4954309;29;20047;-78
2023/08/27 11:19:11;;;;;;;5.53;3.92;;;;;;;;;;4954532;29;20039;-79
2023/08/27 11:21:41;;;;;;;4.75;3.40;;;;;;;;;;4937509;29;20546;-78
2023/08/27 11:24:10;;;;;;;3.25;3.03;;;;;;;;;;4937220;29;20464;-76
2023/08/27 11:26:36;;;;;;;5.63;5.10;;;;;;;;;;4937335;29;20043;-78
2023/08/27 11:29:03;;;;;;;7.78;6.10;;;;;;;;;;4954627;29;20039;-76
2023/08/27 11:31:32;;;;;;;6.30;4.85;;;;;;;;;;4954798;29;20047;-78
2023/08/27 11:33:59;;;;;;;5.10;4.60;;;;;;;;;;4954640;29;20046;-79
2023/08/27 11:36:25;;;;;;;7.15;4.72;;;;;;;;;;4937374;29;20192;-78
2023/08/27 11:38:58;;;;;;;8.65;4.30;;;;;;;;;;4953253;29;20043;-78
2023/08/27 11:41:24;;;;;;;7.60;4.20;;;;;;;;;;4954760;29;20047;-78
2023/08/27 11:43:53;;;;;;;5.47;4.50;;;;;;;;;;4954646;29;20163;-77
2023/08/27 11:46:19;;;;;;;6.32;4.45;;;;;;;;;;4937383;29;20073;-78
2023/08/27 11:48:48;;;;;;;6.63;4.65;;;;;;;;;;4937058;29;20035;-77
2023/08/27 11:51:14;;;;;;;4.85;4.20;;;;;;;;;;4935880;29;20147;-76
2023/08/27 11:53:43;;;;;;;5.35;4.40;;;;;;;;;;4954390;29;20043;-77
2023/08/27 11:56:09;;;;;;;7.95;4.22;;;;;;;;;;4936722;29;20031;-79
2023/08/27 11:58:36;;;;;;;9.02;4.50;;;;;;;;;;4935964;29;20050;-78
2023/08/27 12:01:02;;;;;;;5.60;3.38;;;;;;;;;;4953783;29;20152;-77
2023/08/27 12:03:28;;;;;;;3.80;3.42;;;;;;;;;;4936889;29;20158;-78
2023/08/27 12:05:54;;;;;;;3.15;2.95;;;;;;;;;;4937196;29;20084;-78
2023/08/27 12:08:20;;;;;;;5.15;3.22;;;;;;;;;;4953201;29;20035;-78
2023/08/27 12:10:46;;;;;;;4.40;3.90;;;;;;;;;;4953441;29;20031;-76
2023/08/27 12:13:13;;;;;;;4.30;3.90;;;;;;;;;;4955183;29;20054;-78
2023/08/27 12:15:39;;;;;;;4.70;4.07;;;;;;;;;;4942062;29;20047;-77
2023/08/27 12:18:08;;;;;;;5.28;3.55;;;;;;;;;;4965079;29;20050;-78
2023/08/27 12:20:35;;;;;;;3.65;3.35;;;;;;;;;;4946079;29;20051;-78
2023/08/27 12:23:10;;;;;;;3.90;3.15;;;;;;;;;;4953556;29;20086;-77
2023/08/27 12:25:46;;;;;;;4.78;4.03;;;;;;;;;;4953909;29;20046;-78
2023/08/27 12:28:12;;;;;;;2.63;2.42;;;;;;;;;;4953579;29;20035;-77
2023/08/27 12:30:38;;;;;;;3.28;2.75;;;;;;;;;;4937059;29;20042;-78
2023/08/27 12:33:04;;;;;;;3.17;2.88;;;;;;;;;;4951817;29;20126;-78
2023/08/27 12:35:30;;;;;;;3.88;2.75;;;;;;;;;;4953649;29;20122;-78
2023/08/27 12:37:59;;;;;;;5.38;2.60;;;;;;;;;;4952191;29;20043;-78
2023/08/27 12:40:25;;;;;;;2.67;2.47;;;;;;;;;;4935672;29;20476;-77
2023/08/27 12:42:52;;;;;;;4.35;3.78;;;;;;;;;;4935699;29;20522;-77
2023/08/27 12:45:18;;;;;;;3.38;3.08;;;;;;;;;;4952715;29;20185;-78
2023/08/27 12:47:44;;;;;;;3.88;2.85;;;;;;;;;;4951738;29;20126;-77
2023/08/27 12:50:10;;;;;;;6.97;3.22;;;;;;;;;;4952896;29;20123;-78
2023/08/27 12:52:36;;;;;;;4.28;3.20;;;;;;;;;;4951586;29;20078;-77
2023/08/27 12:55:02;;;;;;;4.40;3.17;;;;;;;;;;4952766;29;20039;-79
2023/08/27 12:57:30;;;;;;;3.80;3.00;;;;;;;;;;4935866;29;20035;-78
2023/08/27 12:59:56;;;;;;;2.92;2.72;;;;;;;;;;4952923;29;20086;-78
2023/08/27 13:02:22;;;;;;;4.22;3.10;;;;;;;;;;4952197;28;20081;-77
2023/08/27 13:04:48;;;;;;;4.28;3.58;;;;;;;;;;4952749;29;20126;-77
2023/08/27 13:07:14;;;;;;;5.10;3.45;;;;;;;;;;4952507;29;20114;-78
2023/08/27 13:09:40;;;;;;;3.72;3.42;;;;;;;;;;4935616;29;20046;-78
2023/08/27 13:12:07;;;;;;;3.45;3.15;;;;;;;;;;4952412;29;20031;-77
2023/08/27 13:14:33;;;;;;;3.00;2.80;;;;;;;;;;4952792;29;20042;-77
2023/08/27 13:16:59;;;;;;;3.50;3.20;;;;;;;;;;4935303;29;20039;-78
2023/08/27 13:19:25;;;;;;;3.25;3.05;;;;;;;;;;4934964;29;20506;-78
2023/08/27 13:21:51;;;;;;;3.50;3.13;;;;;;;;;;4935661;29;20046;-78
2023/08/27 13:24:17;;;;;;;4.20;3.90;;;;;;;;;;4952321;29;20066;-76
2023/08/27 13:26:44;;;;;;;3.47;3.28;;;;;;;;;;4951818;29;20035;-78
2023/08/27 13:29:10;;;;;;;3.80;3.50;;;;;;;;;;4950811;29;20035;-77
2023/08/27 13:31:37;;;;;;;6.28;3.97;;;;;;;;;;4935177;29;20038;-78
2023/08/27 13:34:04;;;;;;;5.07;3.90;;;;;;;;;;4950778;29;20043;-78
2023/08/27 13:36:30;;;;;;;4.65;4.30;;;;;;;;;;4935004;29;20537;-77
2023/08/27 13:38:56;;;;;;;3.60;3.30;;;;;;;;;;4950966;29;20043;-78
2023/08/27 13:41:22;;;;;;;3.58;3.35;;;;;;;;;;4928711;28;20400;-77
2023/08/27 13:43:48;;;;;;;4.88;4.28;;;;;;;;;;4971339;28;20519;-78
2023/08/27 13:46:14;;;;;;;4.68;4.20;;;;;;;;;;4948044;28;20428;-79
2023/08/27 13:48:40;;;;;;;4.45;4.05;;;;;;;;;;4953753;28;20039;-78
2023/08/27 13:51:06;;;;;;;4.18;3.88;;;;;;;;;;4971669;28;20031;-79
2023/08/27 13:53:32;;;;;;;5.00;4.60;;;;;;;;;;4950247;28;20043;-75
2023/08/27 13:55:58;;;;;;;7.65;4.25;;;;;;;;;;4974217;28;20054;-77
2023/08/27 13:58:24;;;;;;;4.45;4.15;;;;;;;;;;4967816;28;20035;-77
2023/08/27 14:00:50;;;;;;;4.95;4.55;;;;;;;;;;4969813;28;20054;-78
2023/08/27 14:03:16;;;;;;;7.13;4.28;;;;;;;;;;4970235;28;20050;-77
2023/08/27 14:05:42;;;;;;;4.65;4.35;;;;;;;;;;4953574;28;20529;-79
2023/08/27 14:08:08;;;;;;;8.45;5.32;;;;;;;;;;4969222;28;20035;-77
2023/08/27 14:10:35;;;;;;;8.45;5.72;;;;;;;;;;4970676;28;20045;-77
2023/08/27 14:13:01;;;;;;;7.25;4.63;;;;;;;;;;4953428;28;20042;-77
2023/08/27 14:15:27;;;;;;;3.95;3.67;;;;;;;;;;4969472;28;20039;-77
2023/08/27 14:17:54;;;;;;;5.68;3.75;;;;;;;;;;4938539;28;20034;-78
2023/08/27 14:20:22;;;;;;;3.10;2.90;;;;;;;;;;4964222;28;20455;-79
2023/08/27 14:22:49;;;;;;;4.97;3.90;;;;;;;;;;4947651;28;20039;-76
2023/08/27 14:25:16;;;;;;;5.25;4.40;;;;;;;;;;4954488;28;20133;-78
2023/08/27 14:27:42;;;;;;;4.07;3.78;;;;;;;;;;4971195;28;20578;-77
2023/08/27 14:30:08;;;;;;;7.90;4.57;;;;;;;;;;4959428;28;20074;-77
2023/08/27 14:32:34;;;;;;;5.03;4.53;;;;;;;;;;4937889;28;20035;-78
2023/08/27 14:35:01;;;;;;;5.57;5.10;;;;;;;;;;4970249;28;20081;-78
2023/08/27 14:37:29;;;;;;;6.20;5.45;;;;;;;;;;4953232;28;20042;-78
2023/08/27 14:39:56;;;;;;;5.85;5.25;;;;;;;;;;4953885;28;20051;-78
2023/08/27 14:42:22;;;;;;;6.07;5.15;;;;;;;;;;4970898;28;20035;-79
2023/08/27 14:44:48;;;;;;;6.03;5.40;;;;;;;;;;4954218;28;20042;-79
2023/08/27 14:47:14;;;;;;;9.35;5.47;;;;;;;;;;4969174;28;20408;-78
2023/08/27 14:49:40;;;;;;;6.53;5.00;;;;;;;;;;4969643;28;20035;-78
2023/08/27 14:52:06;;;;;;;6.63;5.07;;;;;;;;;;4937573;28;20058;-78
2023/08/27 14:54:32;;;;;;;6.43;5.82;;;;;;;;;;4937369;28;20141;-78
2023/08/27 14:56:58;;;;;;;5.90;5.38;;;;;;;;;;4938202;28;20127;-78
2023/08/27 14:59:37;;;;;;;7.30;5.97;;;;;;;;;;4970951;28;20102;-79
2023/08/27 15:02:04;;;;;;;10.55;5.72;;;;;;;;;;4970697;28;20078;-77
2023/08/27 15:04:30;;;;;;;6.50;5.85;;;;;;;;;;4969652;28;20034;-78
2023/08/27 15:06:57;;;;;;;5.93;5.35;;;;;;;;;;4970977;28;20066;-78
2023/08/27 15:09:23;;;;;;;6.80;6.18;;;;;;;;;;4952858;28;20447;-78
2023/08/27 15:11:50;;;;;;;7.40;5.78;;;;;;;;;;4937084;28;20031;-78
2023/08/27 15:14:17;;;;;;;6.13;5.22;;;;;;;;;;4980198;28;20046;-78
2023/08/27 15:16:43;;;;;;;13.32;5.60;;;;;;;;;;4980656;28;20030;-77
2023/08/27 15:19:09;;;;;;;9.30;5.90;;;;;;;;;;4980648;28;20046;-78
2023/08/27 15:21:35;;;;;;;7.88;5.40;;;;;;;;;;4938931;28;20042;-78
2023/08/27 15:24:01;;;;;;;11.88;6.85;;;;;;;;;;4969370;28;20039;-78
2023/08/27 15:26:28;;;;;;;10.15;6.25;;;;;;;;;;4954942;28;20061;-77
2023/08/27 15:28:54;;;;;;;10.68;6.80;;;;;;;;;;4940676;28;20042;-79
2023/08/27 15:31:20;;;;;;;8.85;6.07;;;;;;;;;;4956330;28;20089;-78
2023/08/27 15:33:46;;;;;;;6.70;6.10;;;;;;;;;;4922340;29;20455;-77
2023/08/27 15:36:12;;;;;;;9.27;5.57;;;;;;;;;;4941434;28;20078;-78
2023/08/27 15:38:39;;;;;;;6.65;5.80;;;;;;;;;;4941087;28;20523;-79
2023/08/27 15:41:08;;;;;;;7.20;5.55;;;;;;;;;;4956578;28;20549;-79
2023/08/27 15:43:35;;;;;;;5.55;5.05;;;;;;;;;;4956516;28;20042;-78
2023/08/27 15:46:01;;;;;;;6.38;5.35;;;;;;;;;;4940590;28;20506;-78
2023/08/27 15:48:27;;;;;;;6.68;5.22;;;;;;;;;;4973458;28;20046;-77
2023/08/27 15:50:57;;;;;;;6.15;5.13;;;;;;;;;;4941065;28;20031;-78
2023/08/27 15:53:24;;;;;;;5.30;4.90;;;;;;;;;;4906132;29;20042;-78
2023/08/27 15:55:50;;;;;;;9.07;5.22;;;;;;;;;;4952668;29;20028;-76
2023/08/27 15:58:17;;;;;;;18.23;14.95;;;;;;;;;;4920799;29;20035;-79
2023/08/27 16:00:45;;;;;;;6.43;5.90;;;;;;;;;;4923517;28;20086;-79
2023/08/27 16:03:12;;;;;;;7.95;5.43;;;;;;;;;;4940167;28;20050;-79
2023/08/27 16:05:39;;;;;;;15.38;6.30;;;;;;;;;;4939097;28;20031;-79
2023/08/27 16:08:05;;;;;;;10.65;6.70;;;;;;;;;;4956217;28;20081;-78
2023/08/27 16:10:33;;;;;;;14.40;8.07;;;;;;;;;;4940233;28;20037;-77
2023/08/27 16:13:02;;;;;;;8.27;6.55;;;;;;;;;;4921253;29;20035;-78
2023/08/27 16:15:30;;;;;;;6.80;6.10;;;;;;;;;;4940350;28;20765;-77
2023/08/27 16:17:56;;;;;;;8.95;6.10;;;;;;;;;;4921309;28;20031;-78
2023/08/27 16:20:22;;;;;;;13.30;7.50;;;;;;;;;;4909239;29;20106;-78
2023/08/27 16:22:49;;;;;;;8.25;7.50;;;;;;;;;;4953351;28;20126;-79